sensor_id;sensor_type;location;lat;lon;timestamp;P1;durP1;ratioP1;P2;durP2;ratioP2
39846;SDS011;25517;52.422;10.782;2023-11-19T00:01:32;4.68;;;2.80;;
39846;SDS011;25517;52.422;10.782;2023-11-19T00:03:58;5.13;;;2.60;;
39846;SDS011;25517;52.422;10.782;2023-11-19T00:06:24;2.70;;;2.42;;
39846;SDS011;25517;52.422;10.782;2023-11-19T00:08:50;3.65;;;2.40;;
39846;SDS011;25517;52.422;10.782;2023-11-19T00:11:16;2.80;;;2.53;;
39846;SDS011;25517;52.422;10.782;2023-11-19T00:13:41;4.90;;;2.40;;
39846;SDS011;25517;52.422;10.782;2023-11-19T00:16:08;4.35;;;2.75;;
39846;SDS011;25517;52.422;10.782;2023-11-19T00:18:35;4.05;;;2.63;;
39846;SDS011;25517;52.422;10.782;2023-11-19T00:21:01;3.58;;;2.65;;
39846;SDS011;25517;52.422;10.782;2023-11-19T00:23:27;3.40;;;2.63;;
39846;SDS011;25517;52.422;10.782;2023-11-19T00:25:53;2.53;;;2.10;;
39846;SDS011;25517;52.422;10.782;2023-11-19T00:28:18;3.15;;;2.80;;
39846;SDS011;25517;52.422;10.782;2023-11-19T00:30:44;3.70;;;2.80;;
39846;SDS011;25517;52.422;10.782;2023-11-19T00:33:10;3.47;;;2.45;;
39846;SDS011;25517;52.422;10.782;2023-11-19T00:35:35;3.40;;;2.45;;
39846;SDS011;25517;52.422;10.782;2023-11-19T00:38:02;3.40;;;2.40;;
39846;SDS011;25517;52.422;10.782;2023-11-19T00:40:28;3.10;;;2.40;;
39846;SDS011;25517;52.422;10.782;2023-11-19T00:42:54;3.03;;;2.17;;
39846;SDS011;25517;52.422;10.782;2023-11-19T00:45:20;3.65;;;2.47;;
39846;SDS011;25517;52.422;10.782;2023-11-19T00:47:45;4.40;;;2.40;;
39846;SDS011;25517;52.422;10.782;2023-11-19T00:50:11;3.38;;;2.10;;
39846;SDS011;25517;52.422;10.782;2023-11-19T00:52:37;4.85;;;2.10;;
39846;SDS011;25517;52.422;10.782;2023-11-19T00:55:04;2.45;;;2.00;;
39846;SDS011;25517;52.422;10.782;2023-11-19T00:57:30;2.88;;;1.92;;
39846;SDS011;25517;52.422;10.782;2023-11-19T00:59:57;2.05;;;1.75;;
39846;SDS011;25517;52.422;10.782;2023-11-19T01:02:23;3.53;;;2.35;;
39846;SDS011;25517;52.422;10.782;2023-11-19T01:04:49;4.55;;;2.20;;
39846;SDS011;25517;52.422;10.782;2023-11-19T01:07:15;2.40;;;1.88;;
39846;SDS011;25517;52.422;10.782;2023-11-19T01:09:41;2.22;;;1.73;;
39846;SDS011;25517;52.422;10.782;2023-11-19T01:12:07;3.75;;;1.73;;
39846;SDS011;25517;52.422;10.782;2023-11-19T01:14:34;4.15;;;1.98;;
39846;SDS011;25517;52.422;10.782;2023-11-19T01:17:00;1.85;;;1.52;;
39846;SDS011;25517;52.422;10.782;2023-11-19T01:19:26;2.10;;;1.80;;
39846;SDS011;25517;52.422;10.782;2023-11-19T01:21:53;2.67;;;1.55;;
39846;SDS011;25517;52.422;10.782;2023-11-19T01:24:19;1.98;;;1.60;;
39846;SDS011;25517;52.422;10.782;2023-11-19T01:26:45;2.50;;;1.77;;
39846;SDS011;25517;52.422;10.782;2023-11-19T01:29:12;2.17;;;1.90;;
39846;SDS011;25517;52.422;10.782;2023-11-19T01:31:41;1.63;;;1.40;;
39846;SDS011;25517;52.422;10.782;2023-11-19T01:34:07;2.42;;;1.52;;
39846;SDS011;25517;52.422;10.782;2023-11-19T01:36:33;2.22;;;2.03;;
39846;SDS011;25517;52.422;10.782;2023-11-19T01:38:58;1.70;;;1.60;;
39846;SDS011;25517;52.422;10.782;2023-11-19T01:41:24;1.40;;;1.30;;
39846;SDS011;25517;52.422;10.782;2023-11-19T01:43:50;2.55;;;1.67;;
39846;SDS011;25517;52.422;10.782;2023-11-19T01:46:15;1.65;;;1.40;;
39846;SDS011;25517;52.422;10.782;2023-11-19T01:48:45;1.63;;;1.27;;
39846;SDS011;25517;52.422;10.782;2023-11-19T01:51:12;1.40;;;1.15;;
39846;SDS011;25517;52.422;10.782;2023-11-19T01:53:41;1.83;;;1.40;;
39846;SDS011;25517;52.422;10.782;2023-11-19T01:56:07;3.80;;;1.30;;
39846;SDS011;25517;52.422;10.782;2023-11-19T01:58:36;3.53;;;1.65;;
39846;SDS011;25517;52.422;10.782;2023-11-19T02:01:02;1.98;;;1.10;;
39846;SDS011;25517;52.422;10.782;2023-11-19T02:03:31;1.50;;;1.30;;
39846;SDS011;25517;52.422;10.782;2023-11-19T02:05:58;1.27;;;1.13;;
39846;SDS011;25517;52.422;10.782;2023-11-19T02:08:24;1.13;;;1.02;;
39846;SDS011;25517;52.422;10.782;2023-11-19T02:10:51;2.20;;;1.40;;
39846;SDS011;25517;52.422;10.782;2023-11-19T02:13:17;2.80;;;1.33;;
39846;SDS011;25517;52.422;10.782;2023-11-19T02:15:43;1.20;;;1.10;;
39846;SDS011;25517;52.422;10.782;2023-11-19T02:20:52;2.45;;;1.50;;
39846;SDS011;25517;52.422;10.782;2023-11-19T02:23:19;0.77;;;0.77;;
39846;SDS011;25517;52.422;10.782;2023-11-19T02:28:43;2.95;;;0.98;;
39846;SDS011;25517;52.422;10.782;2023-11-19T02:31:09;0.75;;;0.75;;
39846;SDS011;25517;52.422;10.782;2023-11-19T02:33:38;1.40;;;1.02;;
39846;SDS011;25517;52.422;10.782;2023-11-19T02:36:04;1.45;;;0.95;;
39846;SDS011;25517;52.422;10.782;2023-11-19T02:38:31;1.17;;;0.80;;
39846;SDS011;25517;52.422;10.782;2023-11-19T02:41:03;1.42;;;0.77;;
39846;SDS011;25517;52.422;10.782;2023-11-19T02:43:35;2.78;;;0.80;;
39846;SDS011;25517;52.422;10.782;2023-11-19T02:46:02;2.10;;;1.15;;
39846;SDS011;25517;52.422;10.782;2023-11-19T02:48:32;1.20;;;0.70;;
39846;SDS011;25517;52.422;10.782;2023-11-19T02:51:00;0.90;;;0.85;;
39846;SDS011;25517;52.422;10.782;2023-11-19T02:53:29;1.20;;;1.00;;
39846;SDS011;25517;52.422;10.782;2023-11-19T02:55:55;1.02;;;0.82;;
39846;SDS011;25517;52.422;10.782;2023-11-19T02:58:27;1.45;;;1.20;;
39846;SDS011;25517;52.422;10.782;2023-11-19T03:00:54;1.48;;;1.20;;
39846;SDS011;25517;52.422;10.782;2023-11-19T03:03:22;2.00;;;1.17;;
39846;SDS011;25517;52.422;10.782;2023-11-19T03:06:03;0.98;;;0.88;;
39846;SDS011;25517;52.422;10.782;2023-11-19T03:08:29;0.82;;;0.82;;
39846;SDS011;25517;52.422;10.782;2023-11-19T03:10:55;0.85;;;0.85;;
39846;SDS011;25517;52.422;10.782;2023-11-19T03:13:21;0.90;;;0.80;;
39846;SDS011;25517;52.422;10.782;2023-11-19T03:15:47;1.05;;;0.93;;
39846;SDS011;25517;52.422;10.782;2023-11-19T03:18:12;1.80;;;0.80;;
39846;SDS011;25517;52.422;10.782;2023-11-19T03:20:38;3.67;;;0.80;;
39846;SDS011;25517;52.422;10.782;2023-11-19T03:23:04;1.70;;;1.00;;
39846;SDS011;25517;52.422;10.782;2023-11-19T03:25:31;1.17;;;1.00;;
39846;SDS011;25517;52.422;10.782;2023-11-19T03:27:59;2.88;;;0.82;;
39846;SDS011;25517;52.422;10.782;2023-11-19T03:30:28;1.10;;;0.70;;
39846;SDS011;25517;52.422;10.782;2023-11-19T03:32:57;1.95;;;0.80;;
39846;SDS011;25517;52.422;10.782;2023-11-19T03:35:23;0.60;;;0.60;;
39846;SDS011;25517;52.422;10.782;2023-11-19T03:37:49;0.98;;;0.80;;
39846;SDS011;25517;52.422;10.782;2023-11-19T03:40:16;2.10;;;1.05;;
39846;SDS011;25517;52.422;10.782;2023-11-19T03:42:43;2.97;;;0.80;;
39846;SDS011;25517;52.422;10.782;2023-11-19T03:45:12;1.80;;;1.13;;
39846;SDS011;25517;52.422;10.782;2023-11-19T03:47:38;0.65;;;0.65;;
39846;SDS011;25517;52.422;10.782;2023-11-19T03:50:04;1.02;;;0.90;;
39846;SDS011;25517;52.422;10.782;2023-11-19T03:52:30;0.90;;;0.90;;
39846;SDS011;25517;52.422;10.782;2023-11-19T03:54:56;1.10;;;1.00;;
39846;SDS011;25517;52.422;10.782;2023-11-19T03:57:22;2.97;;;1.80;;
39846;SDS011;25517;52.422;10.782;2023-11-19T03:59:48;3.67;;;1.33;;
39846;SDS011;25517;52.422;10.782;2023-11-19T04:02:13;2.40;;;1.52;;
39846;SDS011;25517;52.422;10.782;2023-11-19T04:04:39;1.98;;;1.48;;
39846;SDS011;25517;52.422;10.782;2023-11-19T04:07:05;3.47;;;1.38;;
39846;SDS011;25517;52.422;10.782;2023-11-19T04:09:31;1.50;;;1.10;;
39846;SDS011;25517;52.422;10.782;2023-11-19T04:11:59;6.50;;;1.38;;
39846;SDS011;25517;52.422;10.782;2023-11-19T04:14:25;3.40;;;1.33;;
39846;SDS011;25517;52.422;10.782;2023-11-19T04:16:52;3.67;;;1.60;;
39846;SDS011;25517;52.422;10.782;2023-11-19T04:19:18;3.65;;;1.70;;
39846;SDS011;25517;52.422;10.782;2023-11-19T04:21:44;2.35;;;1.52;;
39846;SDS011;25517;52.422;10.782;2023-11-19T04:24:10;2.85;;;1.92;;
39846;SDS011;25517;52.422;10.782;2023-11-19T04:26:42;4.13;;;1.65;;
39846;SDS011;25517;52.422;10.782;2023-11-19T04:29:11;2.83;;;2.00;;
39846;SDS011;25517;52.422;10.782;2023-11-19T04:31:37;3.03;;;1.80;;
39846;SDS011;25517;52.422;10.782;2023-11-19T04:34:04;2.95;;;1.80;;
39846;SDS011;25517;52.422;10.782;2023-11-19T04:36:29;1.70;;;1.52;;
39846;SDS011;25517;52.422;10.782;2023-11-19T04:38:55;2.95;;;2.00;;
39846;SDS011;25517;52.422;10.782;2023-11-19T04:41:20;2.60;;;1.60;;
39846;SDS011;25517;52.422;10.782;2023-11-19T04:43:46;3.33;;;1.75;;
39846;SDS011;25517;52.422;10.782;2023-11-19T04:46:12;1.83;;;1.48;;
39846;SDS011;25517;52.422;10.782;2023-11-19T04:48:37;1.73;;;1.60;;
39846;SDS011;25517;52.422;10.782;2023-11-19T04:51:06;3.53;;;1.70;;
39846;SDS011;25517;52.422;10.782;2023-11-19T04:53:31;3.05;;;1.85;;
39846;SDS011;25517;52.422;10.782;2023-11-19T04:55:57;4.90;;;1.50;;
39846;SDS011;25517;52.422;10.782;2023-11-19T04:58:23;2.95;;;1.85;;
39846;SDS011;25517;52.422;10.782;2023-11-19T05:00:48;2.60;;;2.20;;
39846;SDS011;25517;52.422;10.782;2023-11-19T05:03:14;4.30;;;2.20;;
39846;SDS011;25517;52.422;10.782;2023-11-19T05:05:39;5.07;;;2.80;;
39846;SDS011;25517;52.422;10.782;2023-11-19T05:08:05;7.03;;;3.05;;
39846;SDS011;25517;52.422;10.782;2023-11-19T05:10:30;4.75;;;2.90;;
39846;SDS011;25517;52.422;10.782;2023-11-19T05:12:56;5.57;;;2.40;;
39846;SDS011;25517;52.422;10.782;2023-11-19T05:15:22;4.82;;;2.95;;
39846;SDS011;25517;52.422;10.782;2023-11-19T05:17:49;4.15;;;2.88;;
39846;SDS011;25517;52.422;10.782;2023-11-19T05:20:14;5.75;;;2.83;;
39846;SDS011;25517;52.422;10.782;2023-11-19T05:22:40;9.23;;;3.58;;
39846;SDS011;25517;52.422;10.782;2023-11-19T05:25:06;7.78;;;3.35;;
39846;SDS011;25517;52.422;10.782;2023-11-19T05:27:34;5.65;;;3.47;;
39846;SDS011;25517;52.422;10.782;2023-11-19T05:30:00;8.23;;;3.65;;
39846;SDS011;25517;52.422;10.782;2023-11-19T05:32:26;6.97;;;4.10;;
39846;SDS011;25517;52.422;10.782;2023-11-19T05:34:52;11.32;;;4.30;;
39846;SDS011;25517;52.422;10.782;2023-11-19T05:37:17;11.85;;;5.15;;
39846;SDS011;25517;52.422;10.782;2023-11-19T05:39:44;8.00;;;4.50;;
39846;SDS011;25517;52.422;10.782;2023-11-19T05:42:10;8.85;;;3.85;;
39846;SDS011;25517;52.422;10.782;2023-11-19T05:44:37;9.80;;;4.57;;
39846;SDS011;25517;52.422;10.782;2023-11-19T05:47:03;8.82;;;4.13;;
39846;SDS011;25517;52.422;10.782;2023-11-19T05:49:29;9.18;;;4.57;;
39846;SDS011;25517;52.422;10.782;2023-11-19T05:51:54;6.28;;;4.07;;
39846;SDS011;25517;52.422;10.782;2023-11-19T05:54:21;17.27;;;4.50;;
39846;SDS011;25517;52.422;10.782;2023-11-19T05:56:49;8.82;;;3.90;;
39846;SDS011;25517;52.422;10.782;2023-11-19T05:59:15;9.05;;;4.60;;
39846;SDS011;25517;52.422;10.782;2023-11-19T06:01:43;8.02;;;4.28;;
39846;SDS011;25517;52.422;10.782;2023-11-19T06:04:08;8.35;;;4.40;;
39846;SDS011;25517;52.422;10.782;2023-11-19T06:06:35;8.60;;;4.10;;
39846;SDS011;25517;52.422;10.782;2023-11-19T06:09:01;4.30;;;3.30;;
39846;SDS011;25517;52.422;10.782;2023-11-19T06:11:27;9.23;;;3.80;;
39846;SDS011;25517;52.422;10.782;2023-11-19T06:13:53;9.85;;;4.00;;
39846;SDS011;25517;52.422;10.782;2023-11-19T06:16:19;8.40;;;3.67;;
39846;SDS011;25517;52.422;10.782;2023-11-19T06:18:44;5.75;;;3.83;;
39846;SDS011;25517;52.422;10.782;2023-11-19T06:21:10;3.78;;;3.25;;
39846;SDS011;25517;52.422;10.782;2023-11-19T06:23:36;5.57;;;3.53;;
39846;SDS011;25517;52.422;10.782;2023-11-19T06:26:02;6.47;;;3.28;;
39846;SDS011;25517;52.422;10.782;2023-11-19T06:28:28;7.40;;;3.40;;
39846;SDS011;25517;52.422;10.782;2023-11-19T06:30:53;5.15;;;3.58;;
39846;SDS011;25517;52.422;10.782;2023-11-19T06:33:19;7.03;;;3.63;;
39846;SDS011;25517;52.422;10.782;2023-11-19T06:35:45;5.50;;;2.88;;
39846;SDS011;25517;52.422;10.782;2023-11-19T06:38:10;4.93;;;2.85;;
39846;SDS011;25517;52.422;10.782;2023-11-19T06:40:36;11.35;;;3.08;;
39846;SDS011;25517;52.422;10.782;2023-11-19T06:43:02;4.18;;;3.33;;
39846;SDS011;25517;52.422;10.782;2023-11-19T06:45:28;6.57;;;3.42;;
39846;SDS011;25517;52.422;10.782;2023-11-19T06:47:54;5.47;;;3.13;;
39846;SDS011;25517;52.422;10.782;2023-11-19T06:50:19;5.90;;;3.42;;
39846;SDS011;25517;52.422;10.782;2023-11-19T06:52:45;5.28;;;2.88;;
39846;SDS011;25517;52.422;10.782;2023-11-19T06:55:11;6.20;;;3.13;;
39846;SDS011;25517;52.422;10.782;2023-11-19T06:57:37;10.40;;;3.90;;
39846;SDS011;25517;52.422;10.782;2023-11-19T07:00:03;6.55;;;4.07;;
39846;SDS011;25517;52.422;10.782;2023-11-19T07:02:30;3.92;;;2.97;;
39846;SDS011;25517;52.422;10.782;2023-11-19T07:04:56;6.18;;;3.95;;
39846;SDS011;25517;52.422;10.782;2023-11-19T07:07:22;9.70;;;4.07;;
39846;SDS011;25517;52.422;10.782;2023-11-19T07:09:48;12.32;;;4.50;;
39846;SDS011;25517;52.422;10.782;2023-11-19T07:12:13;9.15;;;4.45;;
39846;SDS011;25517;52.422;10.782;2023-11-19T07:14:39;9.27;;;4.10;;
39846;SDS011;25517;52.422;10.782;2023-11-19T07:17:06;11.85;;;4.38;;
39846;SDS011;25517;52.422;10.782;2023-11-19T07:19:33;13.10;;;5.20;;
39846;SDS011;25517;52.422;10.782;2023-11-19T07:22:01;17.10;;;5.57;;
39846;SDS011;25517;52.422;10.782;2023-11-19T07:24:27;15.77;;;4.82;;
39846;SDS011;25517;52.422;10.782;2023-11-19T07:26:53;7.95;;;4.10;;
39846;SDS011;25517;52.422;10.782;2023-11-19T07:29:19;14.30;;;5.28;;
39846;SDS011;25517;52.422;10.782;2023-11-19T07:31:46;14.10;;;4.82;;
39846;SDS011;25517;52.422;10.782;2023-11-19T07:34:13;8.25;;;4.75;;
39846;SDS011;25517;52.422;10.782;2023-11-19T07:36:39;10.77;;;4.47;;
39846;SDS011;25517;52.422;10.782;2023-11-19T07:39:05;10.60;;;4.68;;
39846;SDS011;25517;52.422;10.782;2023-11-19T07:41:31;15.95;;;5.50;;
39846;SDS011;25517;52.422;10.782;2023-11-19T07:43:56;12.68;;;4.65;;
39846;SDS011;25517;52.422;10.782;2023-11-19T07:46:22;18.10;;;5.30;;
39846;SDS011;25517;52.422;10.782;2023-11-19T07:48:47;15.52;;;4.78;;
39846;SDS011;25517;52.422;10.782;2023-11-19T07:51:13;16.55;;;4.95;;
39846;SDS011;25517;52.422;10.782;2023-11-19T07:53:39;12.52;;;4.90;;
39846;SDS011;25517;52.422;10.782;2023-11-19T07:56:06;18.52;;;6.57;;
39846;SDS011;25517;52.422;10.782;2023-11-19T07:58:32;21.70;;;5.90;;
39846;SDS011;25517;52.422;10.782;2023-11-19T08:00:58;22.75;;;6.15;;
39846;SDS011;25517;52.422;10.782;2023-11-19T08:03:24;20.13;;;6.25;;
39846;SDS011;25517;52.422;10.782;2023-11-19T08:05:50;19.50;;;6.88;;
39846;SDS011;25517;52.422;10.782;2023-11-19T08:08:15;21.65;;;5.97;;
39846;SDS011;25517;52.422;10.782;2023-11-19T08:10:41;19.67;;;6.25;;
39846;SDS011;25517;52.422;10.782;2023-11-19T08:13:08;22.77;;;6.63;;
39846;SDS011;25517;52.422;10.782;2023-11-19T08:15:34;19.75;;;6.72;;
39846;SDS011;25517;52.422;10.782;2023-11-19T08:17:59;22.65;;;7.00;;
39846;SDS011;25517;52.422;10.782;2023-11-19T08:20:25;15.82;;;6.72;;
39846;SDS011;25517;52.422;10.782;2023-11-19T08:22:50;24.80;;;8.38;;
39846;SDS011;25517;52.422;10.782;2023-11-19T08:25:16;20.00;;;7.05;;
39846;SDS011;25517;52.422;10.782;2023-11-19T08:27:42;21.83;;;7.45;;
39846;SDS011;25517;52.422;10.782;2023-11-19T08:30:08;25.67;;;6.68;;
39846;SDS011;25517;52.422;10.782;2023-11-19T08:32:34;24.77;;;7.45;;
39846;SDS011;25517;52.422;10.782;2023-11-19T08:35:00;26.40;;;6.22;;
39846;SDS011;25517;52.422;10.782;2023-11-19T08:37:26;21.30;;;6.68;;
39846;SDS011;25517;52.422;10.782;2023-11-19T08:39:52;27.45;;;7.30;;
39846;SDS011;25517;52.422;10.782;2023-11-19T08:42:17;20.25;;;6.70;;
39846;SDS011;25517;52.422;10.782;2023-11-19T08:44:43;21.27;;;6.00;;
39846;SDS011;25517;52.422;10.782;2023-11-19T08:47:15;23.83;;;6.18;;
39846;SDS011;25517;52.422;10.782;2023-11-19T08:49:42;28.92;;;6.40;;
39846;SDS011;25517;52.422;10.782;2023-11-19T08:52:08;21.30;;;5.22;;
39846;SDS011;25517;52.422;10.782;2023-11-19T08:54:35;25.23;;;6.28;;
39846;SDS011;25517;52.422;10.782;2023-11-19T08:57:01;23.65;;;6.05;;
39846;SDS011;25517;52.422;10.782;2023-11-19T08:59:28;26.25;;;5.55;;
39846;SDS011;25517;52.422;10.782;2023-11-19T09:01:54;33.25;;;6.22;;
39846;SDS011;25517;52.422;10.782;2023-11-19T09:04:19;30.63;;;6.47;;
39846;SDS011;25517;52.422;10.782;2023-11-19T09:06:47;20.48;;;5.13;;
39846;SDS011;25517;52.422;10.782;2023-11-19T09:09:13;24.25;;;5.65;;
39846;SDS011;25517;52.422;10.782;2023-11-19T09:11:39;20.73;;;6.03;;
39846;SDS011;25517;52.422;10.782;2023-11-19T09:14:04;32.45;;;6.68;;
39846;SDS011;25517;52.422;10.782;2023-11-19T09:16:31;27.10;;;5.95;;
39846;SDS011;25517;52.422;10.782;2023-11-19T09:18:57;30.35;;;6.32;;
39846;SDS011;25517;52.422;10.782;2023-11-19T09:21:24;26.67;;;6.22;;
39846;SDS011;25517;52.422;10.782;2023-11-19T09:23:54;29.25;;;6.75;;
39846;SDS011;25517;52.422;10.782;2023-11-19T09:26:20;21.65;;;5.50;;
39846;SDS011;25517;52.422;10.782;2023-11-19T09:28:46;24.42;;;5.78;;
39846;SDS011;25517;52.422;10.782;2023-11-19T09:31:15;23.75;;;5.10;;
39846;SDS011;25517;52.422;10.782;2023-11-19T09:33:41;34.35;;;6.45;;
39846;SDS011;25517;52.422;10.782;2023-11-19T09:36:07;27.42;;;6.35;;
39846;SDS011;25517;52.422;10.782;2023-11-19T09:38:33;32.17;;;6.57;;
39846;SDS011;25517;52.422;10.782;2023-11-19T09:41:03;28.95;;;5.95;;
39846;SDS011;25517;52.422;10.782;2023-11-19T09:43:33;24.20;;;6.05;;
39846;SDS011;25517;52.422;10.782;2023-11-19T09:46:01;30.75;;;6.03;;
39846;SDS011;25517;52.422;10.782;2023-11-19T09:48:32;30.65;;;6.75;;
39846;SDS011;25517;52.422;10.782;2023-11-19T09:50:59;25.17;;;7.55;;
39846;SDS011;25517;52.422;10.782;2023-11-19T09:53:26;29.65;;;6.93;;
39846;SDS011;25517;52.422;10.782;2023-11-19T09:55:52;34.10;;;6.70;;
39846;SDS011;25517;52.422;10.782;2023-11-19T09:58:18;31.88;;;6.82;;
39846;SDS011;25517;52.422;10.782;2023-11-19T10:00:44;34.92;;;7.47;;
39846;SDS011;25517;52.422;10.782;2023-11-19T10:03:10;32.30;;;6.65;;
39846;SDS011;25517;52.422;10.782;2023-11-19T10:05:37;25.73;;;6.10;;
39846;SDS011;25517;52.422;10.782;2023-11-19T10:08:04;23.70;;;6.32;;
39846;SDS011;25517;52.422;10.782;2023-11-19T10:10:30;30.25;;;6.88;;
39846;SDS011;25517;52.422;10.782;2023-11-19T10:12:55;26.75;;;6.40;;
39846;SDS011;25517;52.422;10.782;2023-11-19T10:15:22;30.90;;;5.75;;
39846;SDS011;25517;52.422;10.782;2023-11-19T10:17:49;32.63;;;6.68;;
39846;SDS011;25517;52.422;10.782;2023-11-19T10:20:21;27.08;;;5.20;;
39846;SDS011;25517;52.422;10.782;2023-11-19T10:22:47;26.25;;;6.30;;
39846;SDS011;25517;52.422;10.782;2023-11-19T10:25:22;29.40;;;5.93;;
39846;SDS011;25517;52.422;10.782;2023-11-19T10:27:52;23.88;;;5.50;;
39846;SDS011;25517;52.422;10.782;2023-11-19T10:30:22;30.38;;;5.93;;
39846;SDS011;25517;52.422;10.782;2023-11-19T10:35:34;26.88;;;6.32;;
39846;SDS011;25517;52.422;10.782;2023-11-19T10:38:13;30.40;;;7.78;;
39846;SDS011;25517;52.422;10.782;2023-11-19T10:40:40;22.90;;;6.05;;
39846;SDS011;25517;52.422;10.782;2023-11-19T10:43:06;22.98;;;5.40;;
39846;SDS011;25517;52.422;10.782;2023-11-19T10:45:33;23.23;;;6.47;;
39846;SDS011;25517;52.422;10.782;2023-11-19T10:47:59;24.92;;;6.35;;
39846;SDS011;25517;52.422;10.782;2023-11-19T10:50:26;21.40;;;5.40;;
39846;SDS011;25517;52.422;10.782;2023-11-19T10:52:55;27.70;;;6.85;;
39846;SDS011;25517;52.422;10.782;2023-11-19T10:55:24;19.30;;;5.90;;
39846;SDS011;25517;52.422;10.782;2023-11-19T10:57:52;23.35;;;5.20;;
39846;SDS011;25517;52.422;10.782;2023-11-19T11:00:23;23.75;;;5.95;;
39846;SDS011;25517;52.422;10.782;2023-11-19T11:02:50;17.00;;;5.63;;
39846;SDS011;25517;52.422;10.782;2023-11-19T11:05:20;24.35;;;6.47;;
39846;SDS011;25517;52.422;10.782;2023-11-19T11:07:47;26.33;;;6.65;;
39846;SDS011;25517;52.422;10.782;2023-11-19T11:10:16;32.17;;;6.75;;
39846;SDS011;25517;52.422;10.782;2023-11-19T11:12:43;23.50;;;5.95;;
39846;SDS011;25517;52.422;10.782;2023-11-19T11:15:09;28.35;;;6.95;;
39846;SDS011;25517;52.422;10.782;2023-11-19T11:17:40;27.65;;;6.95;;
39846;SDS011;25517;52.422;10.782;2023-11-19T11:20:08;27.60;;;6.18;;
39846;SDS011;25517;52.422;10.782;2023-11-19T11:22:39;17.23;;;4.63;;
39846;SDS011;25517;52.422;10.782;2023-11-19T11:25:30;24.83;;;5.72;;
39846;SDS011;25517;52.422;10.782;2023-11-19T11:28:13;27.65;;;6.55;;
39846;SDS011;25517;52.422;10.782;2023-11-19T11:30:49;25.50;;;5.38;;
39846;SDS011;25517;52.422;10.782;2023-11-19T11:33:48;30.73;;;6.97;;
39846;SDS011;25517;52.422;10.782;2023-11-19T11:36:53;27.95;;;5.95;;
39846;SDS011;25517;52.422;10.782;2023-11-19T11:47:25;30.60;;;6.13;;
39846;SDS011;25517;52.422;10.782;2023-11-19T11:53:26;33.40;;;5.57;;
39846;SDS011;25517;52.422;10.782;2023-11-19T11:55:37;20.77;;;5.50;;
39846;SDS011;25517;52.422;10.782;2023-11-19T11:58:20;28.80;;;5.50;;
39846;SDS011;25517;52.422;10.782;2023-11-19T12:00:57;32.78;;;6.45;;
39846;SDS011;25517;52.422;10.782;2023-11-19T12:03:26;25.05;;;5.50;;
39846;SDS011;25517;52.422;10.782;2023-11-19T12:05:53;18.80;;;4.93;;
39846;SDS011;25517;52.422;10.782;2023-11-19T12:08:19;22.00;;;5.30;;
39846;SDS011;25517;52.422;10.782;2023-11-19T12:13:16;21.35;;;4.35;;
39846;SDS011;25517;52.422;10.782;2023-11-19T12:18:23;23.70;;;5.28;;
39846;SDS011;25517;52.422;10.782;2023-11-19T12:20:51;21.95;;;5.75;;
39846;SDS011;25517;52.422;10.782;2023-11-19T12:23:16;25.92;;;6.55;;
39846;SDS011;25517;52.422;10.782;2023-11-19T12:25:42;17.80;;;4.88;;
39846;SDS011;25517;52.422;10.782;2023-11-19T12:28:13;31.70;;;6.05;;
39846;SDS011;25517;52.422;10.782;2023-11-19T12:30:42;27.23;;;6.15;;
39846;SDS011;25517;52.422;10.782;2023-11-19T12:33:09;24.63;;;5.78;;
39846;SDS011;25517;52.422;10.782;2023-11-19T12:35:41;29.27;;;5.97;;
39846;SDS011;25517;52.422;10.782;2023-11-19T12:38:21;33.42;;;5.90;;
39846;SDS011;25517;52.422;10.782;2023-11-19T12:41:04;27.30;;;6.13;;
39846;SDS011;25517;52.422;10.782;2023-11-19T12:43:35;22.73;;;5.68;;
39846;SDS011;25517;52.422;10.782;2023-11-19T12:46:02;26.83;;;5.80;;
39846;SDS011;25517;52.422;10.782;2023-11-19T12:48:49;24.85;;;5.60;;
39846;SDS011;25517;52.422;10.782;2023-11-19T12:51:15;33.40;;;6.28;;
39846;SDS011;25517;52.422;10.782;2023-11-19T12:53:50;23.23;;;6.60;;
39846;SDS011;25517;52.422;10.782;2023-11-19T12:56:19;25.40;;;6.13;;
39846;SDS011;25517;52.422;10.782;2023-11-19T12:58:45;23.13;;;5.35;;
39846;SDS011;25517;52.422;10.782;2023-11-19T13:01:15;32.85;;;6.03;;
39846;SDS011;25517;52.422;10.782;2023-11-19T13:03:45;25.05;;;5.72;;
39846;SDS011;25517;52.422;10.782;2023-11-19T13:06:12;29.95;;;6.22;;
39846;SDS011;25517;52.422;10.782;2023-11-19T13:08:43;27.63;;;6.45;;
39846;SDS011;25517;52.422;10.782;2023-11-19T13:11:11;29.20;;;5.55;;
39846;SDS011;25517;52.422;10.782;2023-11-19T13:13:57;35.40;;;6.60;;
39846;SDS011;25517;52.422;10.782;2023-11-19T13:16:23;27.15;;;5.72;;
39846;SDS011;25517;52.422;10.782;2023-11-19T13:18:49;19.77;;;5.60;;
39846;SDS011;25517;52.422;10.782;2023-11-19T13:21:15;25.08;;;6.07;;
39846;SDS011;25517;52.422;10.782;2023-11-19T13:23:41;29.33;;;6.80;;
39846;SDS011;25517;52.422;10.782;2023-11-19T13:26:07;29.65;;;7.22;;
39846;SDS011;25517;52.422;10.782;2023-11-19T13:28:33;33.78;;;6.65;;
39846;SDS011;25517;52.422;10.782;2023-11-19T13:30:58;30.40;;;6.00;;
39846;SDS011;25517;52.422;10.782;2023-11-19T13:33:24;31.48;;;5.90;;
39846;SDS011;25517;52.422;10.782;2023-11-19T13:35:49;25.13;;;5.53;;
39846;SDS011;25517;52.422;10.782;2023-11-19T13:38:15;31.77;;;6.63;;
39846;SDS011;25517;52.422;10.782;2023-11-19T13:40:41;31.52;;;6.53;;
39846;SDS011;25517;52.422;10.782;2023-11-19T13:43:06;37.80;;;6.53;;
39846;SDS011;25517;52.422;10.782;2023-11-19T13:45:32;34.60;;;7.03;;
39846;SDS011;25517;52.422;10.782;2023-11-19T13:47:58;33.45;;;7.10;;
39846;SDS011;25517;52.422;10.782;2023-11-19T13:50:23;44.45;;;7.35;;
39846;SDS011;25517;52.422;10.782;2023-11-19T13:52:49;33.70;;;6.97;;
39846;SDS011;25517;52.422;10.782;2023-11-19T13:55:14;32.15;;;5.95;;
39846;SDS011;25517;52.422;10.782;2023-11-19T13:57:41;32.97;;;6.68;;
39846;SDS011;25517;52.422;10.782;2023-11-19T14:00:08;32.22;;;7.03;;
39846;SDS011;25517;52.422;10.782;2023-11-19T14:05:05;39.85;;;7.43;;
39846;SDS011;25517;52.422;10.782;2023-11-19T14:07:30;28.73;;;6.25;;
39846;SDS011;25517;52.422;10.782;2023-11-19T14:09:56;32.15;;;6.65;;
39846;SDS011;25517;52.422;10.782;2023-11-19T14:12:22;29.17;;;6.05;;
39846;SDS011;25517;52.422;10.782;2023-11-19T14:14:47;22.83;;;5.75;;
39846;SDS011;25517;52.422;10.782;2023-11-19T14:17:13;32.20;;;6.95;;
39846;SDS011;25517;52.422;10.782;2023-11-19T14:19:40;29.83;;;5.88;;
39846;SDS011;25517;52.422;10.782;2023-11-19T14:22:06;32.63;;;6.63;;
39846;SDS011;25517;52.422;10.782;2023-11-19T14:24:32;25.92;;;5.28;;
39846;SDS011;25517;52.422;10.782;2023-11-19T14:26:57;32.22;;;6.70;;
39846;SDS011;25517;52.422;10.782;2023-11-19T14:29:24;26.05;;;5.75;;
39846;SDS011;25517;52.422;10.782;2023-11-19T14:31:51;27.98;;;6.32;;
39846;SDS011;25517;52.422;10.782;2023-11-19T14:34:17;32.50;;;5.63;;
39846;SDS011;25517;52.422;10.782;2023-11-19T14:36:44;36.63;;;5.88;;
39846;SDS011;25517;52.422;10.782;2023-11-19T14:39:10;27.13;;;5.20;;
39846;SDS011;25517;52.422;10.782;2023-11-19T14:41:35;27.45;;;5.65;;
39846;SDS011;25517;52.422;10.782;2023-11-19T14:44:01;23.55;;;5.82;;
39846;SDS011;25517;52.422;10.782;2023-11-19T14:46:28;27.17;;;6.53;;
39846;SDS011;25517;52.422;10.782;2023-11-19T14:48:54;28.05;;;6.15;;
39846;SDS011;25517;52.422;10.782;2023-11-19T14:51:19;30.33;;;6.68;;
39846;SDS011;25517;52.422;10.782;2023-11-19T14:53:45;29.17;;;6.80;;
39846;SDS011;25517;52.422;10.782;2023-11-19T14:56:11;33.63;;;6.78;;